sensor_id;sensor_type;location;lat;lon;timestamp;P1;durP1;ratioP1;P2;durP2;ratioP2
9914;SDS011;4996;48.746;9.174;2022-08-20T00:00:40;2.70;;;1.27;;
9914;SDS011;4996;48.746;9.174;2022-08-20T00:03:08;1.90;;;1.40;;
9914;SDS011;4996;48.746;9.174;2022-08-20T00:05:40;1.30;;;1.20;;
9914;SDS011;4996;48.746;9.174;2022-08-20T00:08:09;1.53;;;1.13;;
9914;SDS011;4996;48.746;9.174;2022-08-20T00:10:36;1.73;;;1.20;;
9914;SDS011;4996;48.746;9.174;2022-08-20T00:13:06;2.30;;;1.30;;
9914;SDS011;4996;48.746;9.174;2022-08-20T00:15:35;1.23;;;1.13;;
9914;SDS011;4996;48.746;9.174;2022-08-20T00:18:02;1.63;;;1.53;;
9914;SDS011;4996;48.746;9.174;2022-08-20T00:20:30;2.00;;;1.57;;
9914;SDS011;4996;48.746;9.174;2022-08-20T00:22:58;2.43;;;1.40;;
9914;SDS011;4996;48.746;9.174;2022-08-20T00:25:24;1.70;;;1.37;;
9914;SDS011;4996;48.746;9.174;2022-08-20T00:27:50;2.63;;;1.37;;
9914;SDS011;4996;48.746;9.174;2022-08-20T00:30:16;1.40;;;1.23;;
9914;SDS011;4996;48.746;9.174;2022-08-20T00:35:13;2.30;;;1.63;;
9914;SDS011;4996;48.746;9.174;2022-08-20T00:37:40;1.20;;;1.00;;
9914;SDS011;4996;48.746;9.174;2022-08-20T00:40:06;4.33;;;1.27;;
9914;SDS011;4996;48.746;9.174;2022-08-20T00:42:43;1.20;;;1.00;;
9914;SDS011;4996;48.746;9.174;2022-08-20T00:45:12;1.33;;;1.23;;
9914;SDS011;4996;48.746;9.174;2022-08-20T00:47:38;1.63;;;1.20;;
9914;SDS011;4996;48.746;9.174;2022-08-20T00:50:06;4.80;;;1.60;;
9914;SDS011;4996;48.746;9.174;2022-08-20T00:52:33;2.60;;;1.77;;
9914;SDS011;4996;48.746;9.174;2022-08-20T00:54:59;1.33;;;1.13;;
9914;SDS011;4996;48.746;9.174;2022-08-20T00:57:29;2.43;;;1.30;;
9914;SDS011;4996;48.746;9.174;2022-08-20T01:00:09;1.77;;;1.60;;
9914;SDS011;4996;48.746;9.174;2022-08-20T01:02:38;4.63;;;1.90;;
9914;SDS011;4996;48.746;9.174;2022-08-20T01:05:04;2.00;;;1.80;;
9914;SDS011;4996;48.746;9.174;2022-08-20T01:07:33;2.57;;;1.60;;
9914;SDS011;4996;48.746;9.174;2022-08-20T01:10:08;2.70;;;1.60;;
9914;SDS011;4996;48.746;9.174;2022-08-20T01:12:37;1.70;;;1.23;;
9914;SDS011;4996;48.746;9.174;2022-08-20T01:15:05;1.80;;;1.70;;
9914;SDS011;4996;48.746;9.174;2022-08-20T01:17:33;3.03;;;1.43;;
9914;SDS011;4996;48.746;9.174;2022-08-20T01:20:04;1.90;;;1.13;;
9914;SDS011;4996;48.746;9.174;2022-08-20T01:22:37;2.53;;;1.40;;
9914;SDS011;4996;48.746;9.174;2022-08-20T01:25:40;2.30;;;1.20;;
9914;SDS011;4996;48.746;9.174;2022-08-20T01:28:20;1.20;;;1.10;;
9914;SDS011;4996;48.746;9.174;2022-08-20T01:30:49;1.20;;;1.10;;
9914;SDS011;4996;48.746;9.174;2022-08-20T01:33:16;1.30;;;1.10;;
9914;SDS011;4996;48.746;9.174;2022-08-20T01:35:42;1.27;;;1.17;;
9914;SDS011;4996;48.746;9.174;2022-08-20T01:38:09;1.30;;;1.20;;
9914;SDS011;4996;48.746;9.174;2022-08-20T01:43:08;1.43;;;1.10;;
9914;SDS011;4996;48.746;9.174;2022-08-20T01:45:34;1.80;;;1.40;;
9914;SDS011;4996;48.746;9.174;2022-08-20T01:48:00;1.40;;;1.00;;
9914;SDS011;4996;48.746;9.174;2022-08-20T01:50:27;2.30;;;1.27;;
9914;SDS011;4996;48.746;9.174;2022-08-20T01:53:00;2.40;;;1.60;;
9914;SDS011;4996;48.746;9.174;2022-08-20T01:55:35;1.20;;;1.10;;
9914;SDS011;4996;48.746;9.174;2022-08-20T01:58:01;1.47;;;1.17;;
9914;SDS011;4996;48.746;9.174;2022-08-20T02:00:27;1.60;;;1.33;;
9914;SDS011;4996;48.746;9.174;2022-08-20T02:02:52;1.60;;;1.37;;
9914;SDS011;4996;48.746;9.174;2022-08-20T02:05:18;1.03;;;0.93;;
9914;SDS011;4996;48.746;9.174;2022-08-20T02:07:44;1.37;;;1.27;;
9914;SDS011;4996;48.746;9.174;2022-08-20T02:10:11;3.40;;;1.40;;
9914;SDS011;4996;48.746;9.174;2022-08-20T02:12:38;2.20;;;1.27;;
9914;SDS011;4996;48.746;9.174;2022-08-20T02:15:05;4.27;;;1.13;;
9914;SDS011;4996;48.746;9.174;2022-08-20T02:17:32;1.37;;;1.27;;
9914;SDS011;4996;48.746;9.174;2022-08-20T02:20:21;2.13;;;1.37;;
9914;SDS011;4996;48.746;9.174;2022-08-20T02:22:48;1.67;;;1.50;;
9914;SDS011;4996;48.746;9.174;2022-08-20T02:25:17;1.50;;;1.40;;
9914;SDS011;4996;48.746;9.174;2022-08-20T02:27:45;1.20;;;1.10;;
9914;SDS011;4996;48.746;9.174;2022-08-20T02:30:14;1.80;;;1.63;;
9914;SDS011;4996;48.746;9.174;2022-08-20T02:32:43;1.40;;;1.17;;
9914;SDS011;4996;48.746;9.174;2022-08-20T02:35:09;1.70;;;1.60;;
9914;SDS011;4996;48.746;9.174;2022-08-20T02:37:37;1.80;;;1.70;;
9914;SDS011;4996;48.746;9.174;2022-08-20T02:40:06;1.50;;;1.37;;
9914;SDS011;4996;48.746;9.174;2022-08-20T02:42:34;4.00;;;1.77;;
9914;SDS011;4996;48.746;9.174;2022-08-20T02:45:00;3.20;;;1.70;;
9914;SDS011;4996;48.746;9.174;2022-08-20T02:47:26;2.10;;;1.60;;
9914;SDS011;4996;48.746;9.174;2022-08-20T02:49:53;2.23;;;1.23;;
9914;SDS011;4996;48.746;9.174;2022-08-20T02:52:19;1.30;;;1.20;;
9914;SDS011;4996;48.746;9.174;2022-08-20T02:54:45;1.87;;;1.27;;
9914;SDS011;4996;48.746;9.174;2022-08-20T02:57:14;2.27;;;1.27;;
9914;SDS011;4996;48.746;9.174;2022-08-20T02:59:44;3.17;;;1.50;;
9914;SDS011;4996;48.746;9.174;2022-08-20T03:02:10;2.70;;;1.47;;
9914;SDS011;4996;48.746;9.174;2022-08-20T03:04:36;1.40;;;1.30;;
9914;SDS011;4996;48.746;9.174;2022-08-20T03:07:02;2.37;;;2.17;;
9914;SDS011;4996;48.746;9.174;2022-08-20T03:09:29;2.30;;;2.07;;
9914;SDS011;4996;48.746;9.174;2022-08-20T03:11:54;2.90;;;1.50;;
9914;SDS011;4996;48.746;9.174;2022-08-20T03:14:20;1.53;;;1.40;;
9914;SDS011;4996;48.746;9.174;2022-08-20T03:16:46;2.27;;;1.80;;
9914;SDS011;4996;48.746;9.174;2022-08-20T03:19:11;2.77;;;1.50;;
9914;SDS011;4996;48.746;9.174;2022-08-20T03:21:37;2.63;;;1.80;;
9914;SDS011;4996;48.746;9.174;2022-08-20T03:24:03;3.90;;;1.43;;
9914;SDS011;4996;48.746;9.174;2022-08-20T03:26:29;2.63;;;1.60;;
9914;SDS011;4996;48.746;9.174;2022-08-20T03:28:54;1.90;;;1.70;;
9914;SDS011;4996;48.746;9.174;2022-08-20T03:31:20;1.80;;;1.70;;
9914;SDS011;4996;48.746;9.174;2022-08-20T03:33:45;1.63;;;1.30;;
9914;SDS011;4996;48.746;9.174;2022-08-20T03:36:11;2.93;;;1.77;;
9914;SDS011;4996;48.746;9.174;2022-08-20T03:38:37;1.80;;;1.60;;
9914;SDS011;4996;48.746;9.174;2022-08-20T03:41:02;2.63;;;1.80;;
9914;SDS011;4996;48.746;9.174;2022-08-20T03:43:28;2.00;;;1.90;;
9914;SDS011;4996;48.746;9.174;2022-08-20T03:45:54;2.27;;;2.10;;
9914;SDS011;4996;48.746;9.174;2022-08-20T03:48:20;2.00;;;1.80;;
9914;SDS011;4996;48.746;9.174;2022-08-20T03:50:47;1.77;;;1.60;;
9914;SDS011;4996;48.746;9.174;2022-08-20T03:53:14;2.13;;;1.93;;
9914;SDS011;4996;48.746;9.174;2022-08-20T03:55:42;1.90;;;1.63;;
9914;SDS011;4996;48.746;9.174;2022-08-20T03:58:10;3.97;;;1.73;;
9914;SDS011;4996;48.746;9.174;2022-08-20T04:00:39;2.30;;;2.10;;
9914;SDS011;4996;48.746;9.174;2022-08-20T04:03:06;2.80;;;1.70;;
9914;SDS011;4996;48.746;9.174;2022-08-20T04:05:33;2.03;;;1.83;;
9914;SDS011;4996;48.746;9.174;2022-08-20T04:08:05;2.17;;;1.97;;
9914;SDS011;4996;48.746;9.174;2022-08-20T04:10:36;2.07;;;1.87;;
9914;SDS011;4996;48.746;9.174;2022-08-20T04:13:03;2.20;;;2.00;;
9914;SDS011;4996;48.746;9.174;2022-08-20T04:15:30;3.20;;;2.27;;
9914;SDS011;4996;48.746;9.174;2022-08-20T04:17:56;2.63;;;2.43;;
9914;SDS011;4996;48.746;9.174;2022-08-20T04:20:23;2.60;;;1.93;;
9914;SDS011;4996;48.746;9.174;2022-08-20T04:22:50;2.73;;;2.10;;
9914;SDS011;4996;48.746;9.174;2022-08-20T04:25:17;2.77;;;2.30;;
9914;SDS011;4996;48.746;9.174;2022-08-20T04:27:43;2.83;;;2.30;;
9914;SDS011;4996;48.746;9.174;2022-08-20T04:30:10;2.83;;;2.50;;
9914;SDS011;4996;48.746;9.174;2022-08-20T04:32:38;4.60;;;2.63;;
9914;SDS011;4996;48.746;9.174;2022-08-20T04:35:05;4.70;;;2.20;;
9914;SDS011;4996;48.746;9.174;2022-08-20T04:37:35;2.60;;;2.40;;
9914;SDS011;4996;48.746;9.174;2022-08-20T04:40:04;2.30;;;2.10;;
9914;SDS011;4996;48.746;9.174;2022-08-20T04:42:50;2.60;;;2.40;;
9914;SDS011;4996;48.746;9.174;2022-08-20T04:45:16;2.73;;;2.53;;
9914;SDS011;4996;48.746;9.174;2022-08-20T04:47:42;3.40;;;2.63;;
9914;SDS011;4996;48.746;9.174;2022-08-20T04:50:08;3.00;;;2.80;;
9914;SDS011;4996;48.746;9.174;2022-08-20T04:52:35;2.70;;;2.27;;
9914;SDS011;4996;48.746;9.174;2022-08-20T04:55:02;2.27;;;2.07;;
9914;SDS011;4996;48.746;9.174;2022-08-20T04:57:28;3.33;;;3.03;;
9914;SDS011;4996;48.746;9.174;2022-08-20T04:59:54;2.80;;;2.47;;
9914;SDS011;4996;48.746;9.174;2022-08-20T05:02:20;2.73;;;2.47;;
9914;SDS011;4996;48.746;9.174;2022-08-20T05:04:46;3.33;;;2.83;;
9914;SDS011;4996;48.746;9.174;2022-08-20T05:07:15;2.70;;;2.50;;
9914;SDS011;4996;48.746;9.174;2022-08-20T05:09:42;3.07;;;2.70;;
9914;SDS011;4996;48.746;9.174;2022-08-20T05:12:09;2.97;;;2.67;;
9914;SDS011;4996;48.746;9.174;2022-08-20T05:14:34;4.87;;;3.50;;
9914;SDS011;4996;48.746;9.174;2022-08-20T05:17:03;2.93;;;2.60;;
9914;SDS011;4996;48.746;9.174;2022-08-20T05:19:30;3.10;;;2.80;;
9914;SDS011;4996;48.746;9.174;2022-08-20T05:21:57;2.97;;;2.77;;
9914;SDS011;4996;48.746;9.174;2022-08-20T05:24:23;3.70;;;3.40;;
9914;SDS011;4996;48.746;9.174;2022-08-20T05:26:48;3.53;;;3.23;;
9914;SDS011;4996;48.746;9.174;2022-08-20T05:29:14;3.13;;;2.83;;
9914;SDS011;4996;48.746;9.174;2022-08-20T05:31:40;4.47;;;3.40;;
9914;SDS011;4996;48.746;9.174;2022-08-20T05:34:07;3.23;;;2.93;;
9914;SDS011;4996;48.746;9.174;2022-08-20T05:36:43;2.80;;;2.10;;
9914;SDS011;4996;48.746;9.174;2022-08-20T05:39:11;3.13;;;2.90;;
9914;SDS011;4996;48.746;9.174;2022-08-20T05:41:37;3.67;;;3.37;;
9914;SDS011;4996;48.746;9.174;2022-08-20T05:44:04;3.80;;;3.00;;
9914;SDS011;4996;48.746;9.174;2022-08-20T05:46:34;3.23;;;2.90;;
9914;SDS011;4996;48.746;9.174;2022-08-20T05:49:04;3.30;;;2.83;;
9914;SDS011;4996;48.746;9.174;2022-08-20T05:51:34;3.77;;;3.40;;
9914;SDS011;4996;48.746;9.174;2022-08-20T05:54:01;5.00;;;3.00;;
9914;SDS011;4996;48.746;9.174;2022-08-20T05:56:28;3.20;;;3.00;;
9914;SDS011;4996;48.746;9.174;2022-08-20T05:58:54;3.70;;;3.07;;
9914;SDS011;4996;48.746;9.174;2022-08-20T06:01:20;3.70;;;3.40;;
9914;SDS011;4996;48.746;9.174;2022-08-20T06:03:46;4.63;;;3.23;;
9914;SDS011;4996;48.746;9.174;2022-08-20T06:06:30;3.40;;;3.10;;
9914;SDS011;4996;48.746;9.174;2022-08-20T06:08:56;4.23;;;3.53;;
9914;SDS011;4996;48.746;9.174;2022-08-20T06:11:21;3.13;;;2.83;;
9914;SDS011;4996;48.746;9.174;2022-08-20T06:13:47;5.77;;;3.67;;
9914;SDS011;4996;48.746;9.174;2022-08-20T06:16:12;4.23;;;3.93;;
9914;SDS011;4996;48.746;9.174;2022-08-20T06:18:38;3.33;;;3.03;;
9914;SDS011;4996;48.746;9.174;2022-08-20T06:21:04;3.77;;;3.40;;
9914;SDS011;4996;48.746;9.174;2022-08-20T06:23:30;3.50;;;3.07;;
9914;SDS011;4996;48.746;9.174;2022-08-20T06:25:55;6.17;;;3.97;;
9914;SDS011;4996;48.746;9.174;2022-08-20T06:28:21;4.13;;;3.50;;
9914;SDS011;4996;48.746;9.174;2022-08-20T06:30:47;6.43;;;3.33;;
9914;SDS011;4996;48.746;9.174;2022-08-20T06:33:12;4.67;;;3.23;;
9914;SDS011;4996;48.746;9.174;2022-08-20T06:35:38;6.23;;;3.43;;
9914;SDS011;4996;48.746;9.174;2022-08-20T06:38:04;3.30;;;3.00;;
9914;SDS011;4996;48.746;9.174;2022-08-20T06:40:30;4.10;;;3.30;;
9914;SDS011;4996;48.746;9.174;2022-08-20T06:42:56;5.50;;;3.80;;
9914;SDS011;4996;48.746;9.174;2022-08-20T06:45:29;3.57;;;3.20;;
9914;SDS011;4996;48.746;9.174;2022-08-20T06:47:57;5.37;;;3.03;;
9914;SDS011;4996;48.746;9.174;2022-08-20T06:50:26;3.43;;;2.70;;
9914;SDS011;4996;48.746;9.174;2022-08-20T06:52:53;3.30;;;2.67;;
9914;SDS011;4996;48.746;9.174;2022-08-20T06:55:20;4.70;;;4.20;;
9914;SDS011;4996;48.746;9.174;2022-08-20T06:57:46;4.50;;;3.67;;
9914;SDS011;4996;48.746;9.174;2022-08-20T07:00:13;3.33;;;3.03;;
9914;SDS011;4996;48.746;9.174;2022-08-20T07:02:41;3.93;;;3.53;;
9914;SDS011;4996;48.746;9.174;2022-08-20T07:05:07;4.80;;;3.47;;
9914;SDS011;4996;48.746;9.174;2022-08-20T07:07:34;4.83;;;3.63;;
9914;SDS011;4996;48.746;9.174;2022-08-20T07:10:04;2.90;;;2.70;;
9914;SDS011;4996;48.746;9.174;2022-08-20T07:12:31;3.00;;;2.80;;
9914;SDS011;4996;48.746;9.174;2022-08-20T07:14:58;3.90;;;3.30;;
9914;SDS011;4996;48.746;9.174;2022-08-20T07:17:24;5.90;;;3.13;;
9914;SDS011;4996;48.746;9.174;2022-08-20T07:19:49;4.83;;;3.03;;
9914;SDS011;4996;48.746;9.174;2022-08-20T07:22:15;3.57;;;3.23;;
9914;SDS011;4996;48.746;9.174;2022-08-20T07:24:41;3.63;;;3.07;;
9914;SDS011;4996;48.746;9.174;2022-08-20T07:27:06;4.70;;;3.60;;
9914;SDS011;4996;48.746;9.174;2022-08-20T07:29:32;3.40;;;3.10;;
9914;SDS011;4996;48.746;9.174;2022-08-20T07:32:16;3.30;;;3.00;;
9914;SDS011;4996;48.746;9.174;2022-08-20T07:35:05;6.17;;;3.17;;
9914;SDS011;4996;48.746;9.174;2022-08-20T07:37:37;3.40;;;2.80;;
9914;SDS011;4996;48.746;9.174;2022-08-20T07:40:05;3.30;;;2.83;;
9914;SDS011;4996;48.746;9.174;2022-08-20T07:42:32;3.40;;;3.10;;
9914;SDS011;4996;48.746;9.174;2022-08-20T07:44:57;3.73;;;3.37;;
9914;SDS011;4996;48.746;9.174;2022-08-20T07:47:23;5.17;;;3.40;;
9914;SDS011;4996;48.746;9.174;2022-08-20T07:49:49;7.80;;;3.50;;
9914;SDS011;4996;48.746;9.174;2022-08-20T07:52:14;3.90;;;2.70;;
9914;SDS011;4996;48.746;9.174;2022-08-20T07:54:40;4.53;;;3.00;;
9914;SDS011;4996;48.746;9.174;2022-08-20T07:57:07;3.27;;;2.97;;
9914;SDS011;4996;48.746;9.174;2022-08-20T07:59:35;4.80;;;3.00;;
9914;SDS011;4996;48.746;9.174;2022-08-20T08:02:02;2.60;;;2.40;;
9914;SDS011;4996;48.746;9.174;2022-08-20T08:04:28;3.07;;;2.70;;
9914;SDS011;4996;48.746;9.174;2022-08-20T08:06:54;3.97;;;3.40;;
9914;SDS011;4996;48.746;9.174;2022-08-20T08:09:24;3.57;;;3.27;;
9914;SDS011;4996;48.746;9.174;2022-08-20T08:11:51;3.80;;;3.50;;
9914;SDS011;4996;48.746;9.174;2022-08-20T08:14:22;4.90;;;2.80;;
9914;SDS011;4996;48.746;9.174;2022-08-20T08:16:52;3.10;;;2.80;;
9914;SDS011;4996;48.746;9.174;2022-08-20T08:19:21;3.10;;;2.80;;
9914;SDS011;4996;48.746;9.174;2022-08-20T08:21:47;5.20;;;3.33;;
9914;SDS011;4996;48.746;9.174;2022-08-20T08:24:13;3.60;;;3.13;;
9914;SDS011;4996;48.746;9.174;2022-08-20T08:26:41;4.03;;;3.50;;
9914;SDS011;4996;48.746;9.174;2022-08-20T08:29:07;3.77;;;2.87;;
9914;SDS011;4996;48.746;9.174;2022-08-20T08:31:33;3.10;;;2.83;;
9914;SDS011;4996;48.746;9.174;2022-08-20T08:33:59;3.13;;;2.83;;
9914;SDS011;4996;48.746;9.174;2022-08-20T08:36:24;3.13;;;2.83;;
9914;SDS011;4996;48.746;9.174;2022-08-20T08:38:51;2.60;;;2.40;;
9914;SDS011;4996;48.746;9.174;2022-08-20T08:41:29;3.70;;;2.70;;
9914;SDS011;4996;48.746;9.174;2022-08-20T08:44:13;2.87;;;2.50;;
9914;SDS011;4996;48.746;9.174;2022-08-20T08:46:49;3.70;;;2.60;;
9914;SDS011;4996;48.746;9.174;2022-08-20T08:49:19;3.60;;;2.93;;
9914;SDS011;4996;48.746;9.174;2022-08-20T08:51:50;3.60;;;3.20;;
9914;SDS011;4996;48.746;9.174;2022-08-20T08:54:28;3.50;;;2.77;;
9914;SDS011;4996;48.746;9.174;2022-08-20T08:56:56;2.57;;;2.37;;
9914;SDS011;4996;48.746;9.174;2022-08-20T08:59:23;8.67;;;2.47;;
9914;SDS011;4996;48.746;9.174;2022-08-20T09:01:55;2.37;;;2.17;;
9914;SDS011;4996;48.746;9.174;2022-08-20T09:04:23;3.03;;;2.37;;
9914;SDS011;4996;48.746;9.174;2022-08-20T09:06:55;3.50;;;2.53;;
9914;SDS011;4996;48.746;9.174;2022-08-20T09:09:23;2.70;;;1.97;;
9914;SDS011;4996;48.746;9.174;2022-08-20T09:11:55;2.50;;;2.10;;
9914;SDS011;4996;48.746;9.174;2022-08-20T09:14:26;3.33;;;2.40;;
9914;SDS011;4996;48.746;9.174;2022-08-20T09:16:52;2.40;;;2.20;;
9914;SDS011;4996;48.746;9.174;2022-08-20T09:19:17;3.33;;;2.50;;
9914;SDS011;4996;48.746;9.174;2022-08-20T09:21:43;3.07;;;2.13;;
9914;SDS011;4996;48.746;9.174;2022-08-20T09:24:09;3.10;;;2.60;;
9914;SDS011;4996;48.746;9.174;2022-08-20T09:26:34;2.30;;;2.10;;
9914;SDS011;4996;48.746;9.174;2022-08-20T09:29:00;3.93;;;2.43;;
9914;SDS011;4996;48.746;9.174;2022-08-20T09:31:25;2.30;;;2.10;;
9914;SDS011;4996;48.746;9.174;2022-08-20T09:33:51;2.40;;;2.20;;
9914;SDS011;4996;48.746;9.174;2022-08-20T09:36:17;3.57;;;2.33;;
9914;SDS011;4996;48.746;9.174;2022-08-20T09:38:43;2.53;;;1.97;;
9914;SDS011;4996;48.746;9.174;2022-08-20T09:41:08;2.03;;;1.80;;
9914;SDS011;4996;48.746;9.174;2022-08-20T09:43:34;3.03;;;1.33;;
9914;SDS011;4996;48.746;9.174;2022-08-20T09:46:00;1.43;;;1.33;;
9914;SDS011;4996;48.746;9.174;2022-08-20T09:48:25;1.30;;;1.20;;
9914;SDS011;4996;48.746;9.174;2022-08-20T09:50:51;2.50;;;1.50;;
9914;SDS011;4996;48.746;9.174;2022-08-20T09:53:17;1.47;;;1.37;;
9914;SDS011;4996;48.746;9.174;2022-08-20T09:55:45;4.23;;;1.33;;
9914;SDS011;4996;48.746;9.174;2022-08-20T10:01:06;2.60;;;1.70;;
9914;SDS011;4996;48.746;9.174;2022-08-20T10:03:35;1.97;;;1.43;;
9914;SDS011;4996;48.746;9.174;2022-08-20T10:06:00;1.33;;;1.23;;
9914;SDS011;4996;48.746;9.174;2022-08-20T10:08:26;2.03;;;1.83;;
9914;SDS011;4996;48.746;9.174;2022-08-20T10:10:52;2.20;;;1.50;;
9914;SDS011;4996;48.746;9.174;2022-08-20T10:13:18;1.33;;;1.17;;
9914;SDS011;4996;48.746;9.174;2022-08-20T10:15:43;2.13;;;1.37;;
9914;SDS011;4996;48.746;9.174;2022-08-20T10:18:09;1.40;;;1.30;;
9914;SDS011;4996;48.746;9.174;2022-08-20T10:20:35;1.33;;;1.23;;
9914;SDS011;4996;48.746;9.174;2022-08-20T10:23:01;1.50;;;1.07;;
9914;SDS011;4996;48.746;9.174;2022-08-20T10:25:27;1.90;;;1.37;;
9914;SDS011;4996;48.746;9.174;2022-08-20T10:27:53;1.27;;;1.17;;
9914;SDS011;4996;48.746;9.174;2022-08-20T10:30:19;3.80;;;1.80;;
9914;SDS011;4996;48.746;9.174;2022-08-20T10:32:45;1.33;;;1.23;;
9914;SDS011;4996;48.746;9.174;2022-08-20T10:35:11;3.33;;;1.60;;
9914;SDS011;4996;48.746;9.174;2022-08-20T10:37:37;2.37;;;1.40;;
9914;SDS011;4996;48.746;9.174;2022-08-20T10:40:02;2.17;;;1.97;;
9914;SDS011;4996;48.746;9.174;2022-08-20T10:42:29;1.90;;;1.20;;
9914;SDS011;4996;48.746;9.174;2022-08-20T10:44:54;1.10;;;1.00;;
9914;SDS011;4996;48.746;9.174;2022-08-20T10:47:27;0.93;;;0.87;;
9914;SDS011;4996;48.746;9.174;2022-08-20T10:49:55;1.00;;;0.90;;
9914;SDS011;4996;48.746;9.174;2022-08-20T10:52:22;0.50;;;0.50;;
9914;SDS011;4996;48.746;9.174;2022-08-20T10:54:49;0.57;;;0.50;;
9914;SDS011;4996;48.746;9.174;2022-08-20T10:57:16;1.57;;;0.60;;
9914;SDS011;4996;48.746;9.174;2022-08-20T10:59:47;0.60;;;0.60;;
9914;SDS011;4996;48.746;9.174;2022-08-20T11:02:15;1.30;;;0.70;;
9914;SDS011;4996;48.746;9.174;2022-08-20T11:04:41;0.70;;;0.70;;
9914;SDS011;4996;48.746;9.174;2022-08-20T11:07:23;1.43;;;0.83;;
9914;SDS011;4996;48.746;9.174;2022-08-20T11:09:48;0.70;;;0.60;;
9914;SDS011;4996;48.746;9.174;2022-08-20T11:12:16;1.50;;;0.70;;
9914;SDS011;4996;48.746;9.174;2022-08-20T11:14:43;1.13;;;0.70;;
9914;SDS011;4996;48.746;9.174;2022-08-20T11:17:09;0.70;;;0.70;;
9914;SDS011;4996;48.746;9.174;2022-08-20T11:19:42;1.27;;;0.67;;
9914;SDS011;4996;48.746;9.174;2022-08-20T11:22:09;0.70;;;0.67;;
9914;SDS011;4996;48.746;9.174;2022-08-20T11:24:35;0.70;;;0.70;;
9914;SDS011;4996;48.746;9.174;2022-08-20T11:27:02;1.50;;;0.90;;
9914;SDS011;4996;48.746;9.174;2022-08-20T11:29:29;0.60;;;0.60;;
9914;SDS011;4996;48.746;9.174;2022-08-20T11:31:54;1.73;;;0.80;;
9914;SDS011;4996;48.746;9.174;2022-08-20T11:34:20;0.50;;;0.50;;
9914;SDS011;4996;48.746;9.174;2022-08-20T11:36:46;2.40;;;0.67;;
9914;SDS011;4996;48.746;9.174;2022-08-20T11:39:12;1.00;;;0.73;;
9914;SDS011;4996;48.746;9.174;2022-08-20T11:41:38;0.70;;;0.63;;
9914;SDS011;4996;48.746;9.174;2022-08-20T11:44:03;1.07;;;0.67;;
9914;SDS011;4996;48.746;9.174;2022-08-20T11:46:29;0.70;;;0.70;;
9914;SDS011;4996;48.746;9.174;2022-08-20T11:48:56;1.53;;;0.90;;
9914;SDS011;4996;48.746;9.174;2022-08-20T11:51:22;0.60;;;0.60;;
9914;SDS011;4996;48.746;9.174;2022-08-20T11:53:48;0.70;;;0.70;;
9914;SDS011;4996;48.746;9.174;2022-08-20T11:56:13;1.20;;;0.80;;
9914;SDS011;4996;48.746;9.174;2022-08-20T11:58:40;0.93;;;0.83;;
9914;SDS011;4996;48.746;9.174;2022-08-20T12:01:06;3.70;;;0.80;;
9914;SDS011;4996;48.746;9.174;2022-08-20T12:03:32;1.63;;;0.90;;
9914;SDS011;4996;48.746;9.174;2022-08-20T12:05:58;5.13;;;0.90;;
9914;SDS011;4996;48.746;9.174;2022-08-20T12:08:23;2.70;;;1.10;;
9914;SDS011;4996;48.746;9.174;2022-08-20T12:10:49;1.53;;;0.80;;
9914;SDS011;4996;48.746;9.174;2022-08-20T12:13:14;1.07;;;0.97;;
9914;SDS011;4996;48.746;9.174;2022-08-20T12:15:40;1.07;;;0.97;;
9914;SDS011;4996;48.746;9.174;2022-08-20T12:18:07;0.90;;;0.80;;
9914;SDS011;4996;48.746;9.174;2022-08-20T12:20:34;1.10;;;0.80;;
9914;SDS011;4996;48.746;9.174;2022-08-20T12:23:00;0.80;;;0.80;;
9914;SDS011;4996;48.746;9.174;2022-08-20T12:25:26;1.10;;;1.00;;
9914;SDS011;4996;48.746;9.174;2022-08-20T12:27:51;2.03;;;0.70;;
9914;SDS011;4996;48.746;9.174;2022-08-20T12:30:18;1.60;;;1.00;;
9914;SDS011;4996;48.746;9.174;2022-08-20T12:32:46;1.27;;;0.80;;
9914;SDS011;4996;48.746;9.174;2022-08-20T12:35:13;1.03;;;0.93;;
9914;SDS011;4996;48.746;9.174;2022-08-20T12:37:40;2.80;;;0.97;;
9914;SDS011;4996;48.746;9.174;2022-08-20T12:40:08;1.53;;;0.80;;
9914;SDS011;4996;48.746;9.174;2022-08-20T12:42:38;0.60;;;0.57;;
9914;SDS011;4996;48.746;9.174;2022-08-20T12:45:04;0.80;;;0.80;;
9914;SDS011;4996;48.746;9.174;2022-08-20T12:47:34;0.97;;;0.87;;
9914;SDS011;4996;48.746;9.174;2022-08-20T12:50:21;1.40;;;0.80;;
9914;SDS011;4996;48.746;9.174;2022-08-20T12:52:48;1.07;;;0.70;;
9914;SDS011;4996;48.746;9.174;2022-08-20T12:55:15;1.70;;;0.70;;
9914;SDS011;4996;48.746;9.174;2022-08-20T12:57:43;0.93;;;0.80;;
9914;SDS011;4996;48.746;9.174;2022-08-20T13:00:25;1.00;;;0.80;;
9914;SDS011;4996;48.746;9.174;2022-08-20T13:02:54;1.00;;;0.80;;
9914;SDS011;4996;48.746;9.174;2022-08-20T13:05:20;3.27;;;0.63;;
9914;SDS011;4996;48.746;9.174;2022-08-20T13:07:47;4.00;;;1.03;;
9914;SDS011;4996;48.746;9.174;2022-08-20T13:10:14;4.40;;;1.50;;
9914;SDS011;4996;48.746;9.174;2022-08-20T13:12:42;3.63;;;1.13;;
9914;SDS011;4996;48.746;9.174;2022-08-20T13:15:08;3.17;;;1.40;;
9914;SDS011;4996;48.746;9.174;2022-08-20T13:17:34;2.27;;;1.50;;
9914;SDS011;4996;48.746;9.174;2022-08-20T13:20:00;2.30;;;1.57;;
9914;SDS011;4996;48.746;9.174;2022-08-20T13:22:25;4.27;;;1.60;;
9914;SDS011;4996;48.746;9.174;2022-08-20T13:24:51;1.70;;;1.60;;
9914;SDS011;4996;48.746;9.174;2022-08-20T13:27:17;3.90;;;2.23;;
9914;SDS011;4996;48.746;9.174;2022-08-20T13:29:47;2.60;;;1.50;;
9914;SDS011;4996;48.746;9.174;2022-08-20T13:32:14;3.50;;;1.90;;
9914;SDS011;4996;48.746;9.174;2022-08-20T13:34:40;3.00;;;2.00;;
9914;SDS011;4996;48.746;9.174;2022-08-20T13:37:26;2.80;;;1.60;;
9914;SDS011;4996;48.746;9.174;2022-08-20T13:39:53;3.07;;;1.70;;
9914;SDS011;4996;48.746;9.174;2022-08-20T13:42:20;2.97;;;1.93;;
9914;SDS011;4996;48.746;9.174;2022-08-20T13:44:46;1.90;;;1.70;;
9914;SDS011;4996;48.746;9.174;2022-08-20T13:47:19;2.50;;;1.53;;
9914;SDS011;4996;48.746;9.174;2022-08-20T13:52:23;3.13;;;1.83;;
9914;SDS011;4996;48.746;9.174;2022-08-20T13:54:49;6.20;;;2.17;;
9914;SDS011;4996;48.746;9.174;2022-08-20T13:57:16;2.47;;;0.87;;
9914;SDS011;4996;48.746;9.174;2022-08-20T13:59:43;4.50;;;1.40;;
9914;SDS011;4996;48.746;9.174;2022-08-20T14:02:11;3.90;;;1.77;;
9914;SDS011;4996;48.746;9.174;2022-08-20T14:04:37;2.53;;;1.20;;
9914;SDS011;4996;48.746;9.174;2022-08-20T14:07:12;2.70;;;1.80;;
9914;SDS011;4996;48.746;9.174;2022-08-20T14:09:41;3.23;;;1.63;;
9914;SDS011;4996;48.746;9.174;2022-08-20T14:12:08;1.80;;;1.50;;
9914;SDS011;4996;48.746;9.174;2022-08-20T14:14:35;2.87;;;1.27;;
9914;SDS011;4996;48.746;9.174;2022-08-20T14:19:58;1.60;;;1.03;;
9914;SDS011;4996;48.746;9.174;2022-08-20T14:22:35;1.60;;;1.10;;
9914;SDS011;4996;48.746;9.174;2022-08-20T14:25:03;1.63;;;1.10;;
9914;SDS011;4996;48.746;9.174;2022-08-20T14:27:30;4.53;;;1.37;;
9914;SDS011;4996;48.746;9.174;2022-08-20T14:29:57;2.40;;;1.33;;
9914;SDS011;4996;48.746;9.174;2022-08-20T14:32:22;2.10;;;1.40;;
9914;SDS011;4996;48.746;9.174;2022-08-20T14:34:48;1.30;;;1.20;;
9914;SDS011;4996;48.746;9.174;2022-08-20T14:37:18;1.77;;;0.90;;
9914;SDS011;4996;48.746;9.174;2022-08-20T14:39:49;1.17;;;1.00;;
9914;SDS011;4996;48.746;9.174;2022-08-20T14:42:17;1.17;;;1.07;;
9914;SDS011;4996;48.746;9.174;2022-08-20T14:44:44;3.20;;;1.33;;
9914;SDS011;4996;48.746;9.174;2022-08-20T14:47:17;1.00;;;1.00;;
9914;SDS011;4996;48.746;9.174;2022-08-20T14:49:47;2.20;;;1.40;;
9914;SDS011;4996;48.746;9.174;2022-08-20T14:52:14;1.20;;;1.10;;
9914;SDS011;4996;48.746;9.174;2022-08-20T14:54:42;1.53;;;1.20;;
9914;SDS011;4996;48.746;9.174;2022-08-20T14:57:08;1.67;;;1.30;;
9914;SDS011;4996;48.746;9.174;2022-08-20T14:59:34;1.47;;;1.07;;
9914;SDS011;4996;48.746;9.174;2022-08-20T15:02:01;1.30;;;1.20;;
9914;SDS011;4996;48.746;9.174;2022-08-20T15:04:31;1.13;;;0.97;;
9914;SDS011;4996;48.746;9.174;2022-08-20T15:07:00;1.40;;;1.30;;
9914;SDS011;4996;48.746;9.174;2022-08-20T15:09:29;1.50;;;1.40;;
9914;SDS011;4996;48.746;9.174;2022-08-20T15:11:56;1.40;;;1.30;;
9914;SDS011;4996;48.746;9.174;2022-08-20T15:14:23;1.10;;;1.00;;
9914;SDS011;4996;48.746;9.174;2022-08-20T15:16:48;2.10;;;1.60;;
9914;SDS011;4996;48.746;9.174;2022-08-20T15:19:14;2.30;;;2.10;;
9914;SDS011;4996;48.746;9.174;2022-08-20T15:21:39;2.80;;;2.17;;
9914;SDS011;4996;48.746;9.174;2022-08-20T15:24:05;2.00;;;1.77;;
9914;SDS011;4996;48.746;9.174;2022-08-20T15:26:31;3.03;;;1.60;;
9914;SDS011;4996;48.746;9.174;2022-08-20T15:28:56;2.10;;;1.73;;
9914;SDS011;4996;48.746;9.174;2022-08-20T15:31:22;2.27;;;1.80;;